createdAt,value
2022-11-01T00:01:30.763Z,68.80
2022-11-01T00:03:57.741Z,68.80
2022-11-01T00:06:25.238Z,68.80
2022-11-01T00:08:52.173Z,68.70
2022-11-01T00:11:19.424Z,68.50
2022-11-01T00:13:48.022Z,68.40
2022-11-01T00:16:15.980Z,68.40
2022-11-01T00:18:43.023Z,68.40
2022-11-01T00:21:10.674Z,68.60
2022-11-01T00:23:37.730Z,68.90
2022-11-01T00:26:05.491Z,69.00
2022-11-01T00:28:33.861Z,69.10
2022-11-01T00:31:01.457Z,69.20
2022-11-01T00:33:28.332Z,69.20
2022-11-01T00:36:00.837Z,69.20
2022-11-01T00:38:28.494Z,69.20
2022-11-01T00:40:56.076Z,69.20
2022-11-01T00:43:23.464Z,69.10
2022-11-01T00:45:51.224Z,69.00
2022-11-01T00:48:18.092Z,69.10
2022-11-01T00:50:45.148Z,69.00
2022-11-01T00:53:12.951Z,68.90
2022-11-01T00:55:40.584Z,68.90
2022-11-01T00:58:08.491Z,68.90
2022-11-01T01:00:36.082Z,69.10
2022-11-01T01:03:05.227Z,69.10
2022-11-01T01:05:33.726Z,69.10
2022-11-01T01:08:00.683Z,69.10
2022-11-01T01:10:27.797Z,69.10
2022-11-01T01:12:54.717Z,69.10
2022-11-01T01:15:21.562Z,69.10
2022-11-01T01:17:48.447Z,69.10
2022-11-01T01:20:15.403Z,69.10
2022-11-01T01:22:42.718Z,69.20
2022-11-01T01:25:10.582Z,69.10
2022-11-01T01:27:38.221Z,69.20
2022-11-01T01:30:07.616Z,69.20
2022-11-01T01:32:35.556Z,69.30
2022-11-01T01:35:02.522Z,69.30
2022-11-01T01:37:48.095Z,69.40
2022-11-01T01:40:14.966Z,69.40
2022-11-01T01:42:43.098Z,69.40
2022-11-01T01:45:27.161Z,69.40
2022-11-01T01:47:57.140Z,69.30
2022-11-01T01:50:41.740Z,69.30
2022-11-01T01:53:30.568Z,69.40
2022-11-01T01:56:31.327Z,69.50
2022-11-01T01:59:12.415Z,69.60
2022-11-01T02:01:41.316Z,69.60
2022-11-01T02:04:40.642Z,69.70
2022-11-01T02:07:08.498Z,69.70
2022-11-01T02:09:36.202Z,69.80
2022-11-01T02:12:03.670Z,70.20
2022-11-01T02:14:31.353Z,70.30
2022-11-01T02:17:10.278Z,70.30
2022-11-01T02:19:51.048Z,70.30
2022-11-01T02:22:50.131Z,70.30
2022-11-01T02:25:46.178Z,70.20
2022-11-01T02:28:27.035Z,70.20
2022-11-01T02:31:15.823Z,70.00
2022-11-01T02:33:44.843Z,70.00
2022-11-01T02:36:24.074Z,70.00
2022-11-01T02:39:11.781Z,69.90
2022-11-01T02:42:02.915Z,69.80
2022-11-01T02:44:35.475Z,69.70
2022-11-01T02:47:03.748Z,69.70
2022-11-01T02:49:40.742Z,69.80
2022-11-01T02:52:11.865Z,69.50
2022-11-01T02:54:38.781Z,69.50
2022-11-01T02:57:23.952Z,69.50
2022-11-01T02:59:50.967Z,69.40
2022-11-01T03:02:39.385Z,69.40
2022-11-01T03:05:12.417Z,69.50
2022-11-01T03:07:41.432Z,69.40
2022-11-01T03:10:08.968Z,69.40
2022-11-01T03:12:44.734Z,69.30
2022-11-01T03:15:27.658Z,69.10
2022-11-01T03:18:04.391Z,68.80
2022-11-01T03:20:47.833Z,68.40
2022-11-01T03:23:27.575Z,68.20
2022-11-01T03:25:57.411Z,67.90
2022-11-01T03:28:31.518Z,67.90
2022-11-01T03:31:11.319Z,67.10
2022-11-01T03:33:45.449Z,66.10
2022-11-01T03:36:19.861Z,65.70
2022-11-01T03:38:58.613Z,64.90
2022-11-01T03:41:27.650Z,64.70
2022-11-01T03:43:54.910Z,64.40
2022-11-01T03:46:21.837Z,64.20
2022-11-01T03:48:48.681Z,63.80
2022-11-01T03:51:15.544Z,63.60
2022-11-01T03:53:42.333Z,63.20
2022-11-01T03:56:09.798Z,63.20
2022-11-01T03:58:42.287Z,63.00
2022-11-01T04:01:11.156Z,62.80
2022-11-01T04:03:38.335Z,62.60
2022-11-01T04:06:06.163Z,62.60
2022-11-01T04:08:33.684Z,62.30
2022-11-01T04:11:00.918Z,62.50
2022-11-01T04:13:27.751Z,62.60
2022-11-01T04:16:13.072Z,62.60
2022-11-01T04:18:58.377Z,62.60
2022-11-01T04:21:26.358Z,62.10
2022-11-01T04:23:53.243Z,62.10
2022-11-01T04:26:23.131Z,62.10
2022-11-01T04:28:57.274Z,62.10
2022-11-01T04:31:31.761Z,62.10
2022-11-01T04:33:59.641Z,62.30
2022-11-01T04:36:26.723Z,62.40
2022-11-01T04:38:55.754Z,62.60
2022-11-01T04:41:24.299Z,63.00
2022-11-01T04:43:54.456Z,63.10
2022-11-01T04:46:21.735Z,63.50
2022-11-01T04:48:49.593Z,63.50
2022-11-01T04:51:16.572Z,63.60
2022-11-01T04:53:43.413Z,63.60
2022-11-01T04:56:12.421Z,63.40
2022-11-01T04:58:43.148Z,61.60
2022-11-01T05:01:14.584Z,61.90
2022-11-01T05:03:41.950Z,61.10
2022-11-01T05:06:09.034Z,60.40
2022-11-01T05:08:36.117Z,59.60
2022-11-01T05:11:02.960Z,59.00
2022-11-01T05:13:29.936Z,58.50
2022-11-01T05:16:18.512Z,58.70
2022-11-01T05:18:43.780Z,58.90
2022-11-01T05:21:11.029Z,58.80
2022-11-01T05:23:38.073Z,58.70
2022-11-01T05:26:05.098Z,58.70
2022-11-01T05:28:34.632Z,58.40
2022-11-01T05:31:01.491Z,58.50
2022-11-01T05:33:28.449Z,58.90
2022-11-01T05:35:55.261Z,58.60
2022-11-01T05:38:22.126Z,58.60
2022-11-01T05:40:49.241Z,58.80
2022-11-01T05:43:16.127Z,58.00
2022-11-01T05:45:43.074Z,59.10
2022-11-01T05:48:10.011Z,58.00
2022-11-01T05:50:36.867Z,58.10
2022-11-01T05:53:10.167Z,58.50
2022-11-01T05:55:37.461Z,59.10
2022-11-01T05:58:05.455Z,59.70
2022-11-01T06:00:33.901Z,60.40
2022-11-01T06:03:02.069Z,61.20
2022-11-01T06:05:30.091Z,61.10
2022-11-01T06:08:00.259Z,60.40
2022-11-01T06:10:27.316Z,59.90
2022-11-01T06:12:55.063Z,59.90
2022-11-01T06:15:21.982Z,59.50
2022-11-01T06:17:48.865Z,59.50
2022-11-01T06:20:15.720Z,59.60
2022-11-01T06:22:42.660Z,60.00
2022-11-01T06:25:09.740Z,60.50
2022-11-01T06:27:36.642Z,60.70
2022-11-01T06:30:04.392Z,60.20
2022-11-01T06:32:31.193Z,59.90
2022-11-01T06:34:58.106Z,59.40
2022-11-01T06:37:25.215Z,58.80
2022-11-01T06:39:52.187Z,58.80
2022-11-01T06:42:19.065Z,58.40
2022-11-01T06:44:45.895Z,58.30
2022-11-01T06:47:13.251Z,58.30
2022-11-01T06:49:40.704Z,58.30
2022-11-01T06:52:08.095Z,58.50
2022-11-01T06:54:35.259Z,58.20
2022-11-01T06:57:02.091Z,58.10
2022-11-01T06:59:28.979Z,58.50
2022-11-01T07:01:56.075Z,58.50
2022-11-01T07:04:23.330Z,58.40
2022-11-01T07:06:50.208Z,58.80
2022-11-01T07:09:17.083Z,59.00
2022-11-01T07:11:44.069Z,59.00
2022-11-01T07:14:11.043Z,59.90
2022-11-01T07:16:38.981Z,59.10
2022-11-01T07:19:05.922Z,59.00
2022-11-01T07:21:32.860Z,59.20
2022-11-01T07:23:59.715Z,59.10
2022-11-01T07:26:26.632Z,59.00
2022-11-01T07:28:54.550Z,59.10
2022-11-01T07:31:21.514Z,59.00
2022-11-01T07:33:48.397Z,59.00
2022-11-01T07:36:15.376Z,58.90
2022-11-01T07:38:42.173Z,59.10
2022-11-01T07:41:09.249Z,59.40
2022-11-01T07:43:36.723Z,59.20
2022-11-01T07:46:05.725Z,59.10
2022-11-01T07:48:33.368Z,59.50
2022-11-01T07:51:00.339Z,60.40
2022-11-01T07:53:27.187Z,59.40
2022-11-01T07:55:54.074Z,59.60
2022-11-01T07:58:20.955Z,59.90
2022-11-01T08:00:48.064Z,60.00
2022-11-01T08:03:17.451Z,59.50
2022-11-01T08:05:45.736Z,59.60
2022-11-01T08:08:13.553Z,59.60
2022-11-01T08:10:41.003Z,59.70
2022-11-01T08:13:19.583Z,59.30
2022-11-01T08:15:48.381Z,59.40
2022-11-01T08:18:16.265Z,59.00
2022-11-01T08:20:43.648Z,59.10
2022-11-01T08:23:11.759Z,58.70
2022-11-01T08:25:38.824Z,58.30
2022-11-01T08:28:09.033Z,58.50
2022-11-01T08:30:37.252Z,58.50
2022-11-01T08:33:05.160Z,58.50
2022-11-01T08:35:33.548Z,57.70
2022-11-01T08:38:01.209Z,57.30
2022-11-01T08:40:28.623Z,57.10
2022-11-01T08:42:55.953Z,56.50
2022-11-01T08:45:23.243Z,56.80
2022-11-01T08:47:50.214Z,57.10
2022-11-01T08:50:18.133Z,56.80
2022-11-01T08:52:45.033Z,56.50
2022-11-01T08:55:11.998Z,56.80
2022-11-01T08:57:38.925Z,57.20
2022-11-01T09:00:07.193Z,57.40
2022-11-01T09:02:34.669Z,58.00
2022-11-01T09:05:07.584Z,57.70
2022-11-01T09:07:36.024Z,57.90
2022-11-01T09:10:03.794Z,58.60
2022-11-01T09:12:31.171Z,58.50
2022-11-01T09:14:58.273Z,58.40
2022-11-01T09:17:25.197Z,58.60
2022-11-01T09:19:52.094Z,58.60
2022-11-01T09:22:18.978Z,59.00
2022-11-01T09:24:45.835Z,58.70
2022-11-01T09:27:12.748Z,58.10
2022-11-01T09:29:40.263Z,56.90
2022-11-01T09:32:07.105Z,56.10
2022-11-01T09:34:34.630Z,55.50
2022-11-01T09:37:01.726Z,54.70
2022-11-01T09:39:28.598Z,54.20
2022-11-01T09:42:29.738Z,53.90
2022-11-01T09:45:01.655Z,53.40
2022-11-01T09:47:30.929Z,53.20
2022-11-01T09:50:22.382Z,52.50
2022-11-01T09:52:51.533Z,52.30
2022-11-01T09:55:28.486Z,51.60
2022-11-01T09:58:09.683Z,51.50
2022-11-01T10:00:44.668Z,51.30
2022-11-01T10:03:33.807Z,51.60
2022-11-01T10:06:17.778Z,50.80
2022-11-01T10:09:14.109Z,51.00
2022-11-01T10:11:56.337Z,51.40
2022-11-01T10:14:44.395Z,51.70
2022-11-01T10:17:52.128Z,51.90
2022-11-01T10:20:24.391Z,52.60
2022-11-01T10:22:51.635Z,52.90
2022-11-01T10:25:29.157Z,53.30
2022-11-01T10:28:05.492Z,53.10
2022-11-01T10:30:46.755Z,53.40
2022-11-01T10:33:28.704Z,53.90
2022-11-01T10:36:20.943Z,53.50
2022-11-01T10:41:47.805Z,54.80
2022-11-01T10:44:38.435Z,54.40
2022-11-01T10:47:07.146Z,54.40
2022-11-01T10:50:04.708Z,54.80
2022-11-01T10:52:44.587Z,55.20
2022-11-01T10:55:17.219Z,54.80
2022-11-01T10:57:59.664Z,54.90
2022-11-01T11:00:27.167Z,56.10
2022-11-01T11:03:16.865Z,55.20
2022-11-01T11:05:45.079Z,55.90
2022-11-01T11:08:17.916Z,55.60
2022-11-01T11:10:46.085Z,54.90
2022-11-01T11:13:16.567Z,54.70
2022-11-01T11:15:51.196Z,54.90
2022-11-01T11:18:27.519Z,54.80
2022-11-01T11:21:00.360Z,54.80
2022-11-01T11:23:34.553Z,55.00
2022-11-01T11:26:04.752Z,55.00
2022-11-01T11:28:34.238Z,55.60
2022-11-01T11:31:19.940Z,55.00
2022-11-01T11:33:58.167Z,55.80
2022-11-01T11:36:43.926Z,56.10
2022-11-01T11:39:58.755Z,55.50
2022-11-01T11:42:26.764Z,55.40
2022-11-01T11:44:56.686Z,55.20
2022-11-01T11:47:26.824Z,55.10
2022-11-01T11:49:54.340Z,55.40
2022-11-01T11:52:28.690Z,55.40
2022-11-01T11:54:56.071Z,55.80
2022-11-01T11:57:29.997Z,55.40
2022-11-01T12:00:05.027Z,55.00
2022-11-01T12:02:41.483Z,55.90
2022-11-01T12:05:15.841Z,55.40
2022-11-01T12:07:49.154Z,55.00
2022-11-01T12:10:34.703Z,55.30
2022-11-01T12:13:03.098Z,55.10
2022-11-01T12:15:38.540Z,55.00
2022-11-01T12:18:18.196Z,54.90
2022-11-01T12:20:52.569Z,54.50
2022-11-01T12:23:36.045Z,54.80
2022-11-01T12:26:07.041Z,54.30
2022-11-01T12:28:47.177Z,54.00
2022-11-01T12:31:19.710Z,54.60
2022-11-01T12:34:05.287Z,54.70
2022-11-01T12:36:44.237Z,54.40
2022-11-01T12:39:42.112Z,55.20
2022-11-01T12:42:14.401Z,54.90
2022-11-01T12:44:45.485Z,54.70
2022-11-01T12:47:37.658Z,54.20
2022-11-01T12:50:10.533Z,54.60
2022-11-01T12:52:47.111Z,54.80
2022-11-01T12:55:32.497Z,54.10
2022-11-01T12:57:59.468Z,53.90
2022-11-01T13:00:56.096Z,53.90
2022-11-01T13:03:43.195Z,54.70
2022-11-01T13:06:12.917Z,54.40
2022-11-01T13:09:01.099Z,53.80
2022-11-01T13:12:06.919Z,53.50
2022-11-01T13:14:33.856Z,54.00
2022-11-01T13:17:38.522Z,54.10
2022-11-01T13:20:25.656Z,54.60
2022-11-01T13:23:15.067Z,54.40
2022-11-01T13:26:14.146Z,53.90
2022-11-01T13:29:05.292Z,54.60
2022-11-01T13:31:42.670Z,54.60
2022-11-01T13:34:18.506Z,54.00
2022-11-01T13:37:04.716Z,53.80
2022-11-01T13:39:40.701Z,53.90
2022-11-01T13:42:16.882Z,54.10
2022-11-01T13:44:48.798Z,54.40
2022-11-01T13:47:26.369Z,54.10
2022-11-01T13:50:02.213Z,53.90
2022-11-01T13:52:31.682Z,53.90
2022-11-01T13:55:07.584Z,54.50
2022-11-01T13:57:34.944Z,54.10
2022-11-01T14:00:07.031Z,54.00
2022-11-01T14:02:57.107Z,53.60
2022-11-01T14:05:37.512Z,53.70
2022-11-01T14:08:04.844Z,54.10
2022-11-01T14:10:31.868Z,53.70
2022-11-01T14:13:08.088Z,53.70
2022-11-01T14:16:11.653Z,53.70
2022-11-01T14:19:03.285Z,54.00
2022-11-01T14:21:32.232Z,53.80
2022-11-01T14:24:01.657Z,53.60
2022-11-01T14:51:08.044Z,55.80
2022-11-01T14:53:37.530Z,56.60
2022-11-01T14:56:17.033Z,56.20
2022-11-01T14:58:44.580Z,56.00
2022-11-01T15:01:18.416Z,55.50
2022-11-01T15:04:00.049Z,55.10
2022-11-01T15:06:30.266Z,55.40
2022-11-01T15:09:03.767Z,55.40
2022-11-01T15:11:33.041Z,55.30
2022-11-01T15:14:04.762Z,56.20
2022-11-01T15:16:35.457Z,55.20
2022-11-01T15:19:06.802Z,55.20
2022-11-01T15:21:34.435Z,55.50
2022-11-01T15:24:03.087Z,55.20
2022-11-01T15:26:33.482Z,55.50
2022-11-01T15:29:03.350Z,55.60
2022-11-01T15:31:31.499Z,55.80
2022-11-01T15:34:01.569Z,55.50
2022-11-01T15:36:37.301Z,55.40
2022-11-01T15:39:26.152Z,55.50
2022-11-01T15:41:57.411Z,55.10
2022-11-01T15:44:30.094Z,55.40
2022-11-01T15:47:01.791Z,55.30
2022-11-01T15:49:36.002Z,55.60
2022-11-01T15:52:15.238Z,55.50
2022-11-01T15:54:58.192Z,55.50
2022-11-01T15:57:31.218Z,55.40
2022-11-01T16:00:06.566Z,55.50
2022-11-01T16:02:45.152Z,55.40
2022-11-01T16:05:16.150Z,55.70
2022-11-01T16:07:44.276Z,55.50
2022-11-01T16:10:26.563Z,55.60
2022-11-01T16:12:55.175Z,55.60
2022-11-01T16:15:33.763Z,55.80
2022-11-01T16:18:13.944Z,55.80
2022-11-01T16:20:41.241Z,55.90
2022-11-01T16:23:09.728Z,56.20
2022-11-01T16:25:37.762Z,56.10
2022-11-01T16:28:10.726Z,56.30
2022-11-01T16:30:42.919Z,56.30
2022-11-01T16:33:22.786Z,56.10
2022-11-01T16:35:53.482Z,56.10
2022-11-01T16:38:37.166Z,56.10
2022-11-01T16:41:05.699Z,56.30
2022-11-01T16:43:34.601Z,56.30
2022-11-01T16:46:03.103Z,56.30
2022-11-01T16:48:32.506Z,56.00
2022-11-01T16:51:01.187Z,56.10
2022-11-01T16:53:30.466Z,56.00
2022-11-01T16:56:34.491Z,56.00
2022-11-01T16:59:05.515Z,56.10
2022-11-01T17:01:35.613Z,56.00
2022-11-01T17:04:03.329Z,55.80
2022-11-01T17:06:33.502Z,56.10
2022-11-01T17:09:04.804Z,55.90
2022-11-01T17:11:31.627Z,56.00
2022-11-01T17:13:58.503Z,55.80
2022-11-01T17:16:27.480Z,55.80
2022-11-01T17:18:58.640Z,55.90
2022-11-01T17:21:28.919Z,56.90
2022-11-01T17:23:55.871Z,55.90
2022-11-01T17:26:23.822Z,56.00
2022-11-01T17:28:52.533Z,56.10
2022-11-01T17:31:19.726Z,56.00
2022-11-01T17:33:46.636Z,55.90
2022-11-01T17:36:17.569Z,55.80
2022-11-01T17:38:45.017Z,55.90
2022-11-01T17:41:17.273Z,56.00
2022-11-01T17:43:44.157Z,56.00
2022-11-01T17:46:19.943Z,56.10
2022-11-01T17:48:46.801Z,56.30
2022-11-01T17:51:13.764Z,56.30
2022-11-01T17:53:42.167Z,56.30
2022-11-01T17:56:09.628Z,56.40
2022-11-01T17:58:36.785Z,56.40
2022-11-01T18:01:04.732Z,56.50
2022-11-01T18:03:31.935Z,56.40
2022-11-01T18:06:02.108Z,56.50
2022-11-01T18:08:33.648Z,56.60
2022-11-01T18:11:32.145Z,56.60
2022-11-01T18:14:06.336Z,56.50
2022-11-01T18:16:46.499Z,56.60
2022-11-01T18:19:26.512Z,56.80
2022-11-01T18:22:05.826Z,57.00
2022-11-01T18:24:41.965Z,57.20
2022-11-01T18:27:10.820Z,57.30
2022-11-01T18:29:40.364Z,57.30
2022-11-01T18:32:28.619Z,57.50
2022-11-01T18:35:02.862Z,57.60
2022-11-01T18:37:36.690Z,57.70
2022-11-01T18:40:24.694Z,57.90
2022-11-01T18:42:52.362Z,58.00
2022-11-01T18:45:25.587Z,58.00
2022-11-01T18:48:11.827Z,58.10
2022-11-01T18:50:38.724Z,58.10
2022-11-01T18:53:08.751Z,57.90
2022-11-01T18:55:35.756Z,58.00
2022-11-01T18:58:21.657Z,57.90
2022-11-01T19:01:00.799Z,57.70
2022-11-01T19:03:29.371Z,57.70
2022-11-01T19:06:15.436Z,57.70
2022-11-01T19:08:43.052Z,57.90
2022-11-01T19:11:12.983Z,57.90
2022-11-01T19:13:39.899Z,57.90
2022-11-01T19:16:11.537Z,57.80
2022-11-01T19:18:42.286Z,57.90
2022-11-01T19:21:19.412Z,57.60
2022-11-01T19:23:51.835Z,58.60
2022-11-01T19:26:27.316Z,57.60
2022-11-01T19:28:54.393Z,57.40
2022-11-01T19:31:27.095Z,57.60
2022-11-01T19:33:57.147Z,58.00
2022-11-01T19:36:31.052Z,58.20
2022-11-01T19:38:59.627Z,58.30
2022-11-01T19:41:31.608Z,58.70
2022-11-01T19:44:01.967Z,58.80
2022-11-01T19:46:30.303Z,58.90
2022-11-01T19:48:57.168Z,58.80
2022-11-01T19:51:24.682Z,58.80
2022-11-01T19:53:52.616Z,58.80
2022-11-01T19:56:24.902Z,58.70
2022-11-01T19:58:59.866Z,58.70
2022-11-01T20:01:46.624Z,58.90
2022-11-01T20:04:27.619Z,59.00
2022-11-01T20:06:57.509Z,59.10
2022-11-01T20:09:30.384Z,59.30
2022-11-01T20:11:57.356Z,59.40
2022-11-01T20:14:24.188Z,59.40
2022-11-01T20:16:51.085Z,59.50
2022-11-01T20:19:18.268Z,59.70
2022-11-01T20:21:45.440Z,60.00
2022-11-01T20:24:12.952Z,60.40
2022-11-01T20:26:40.124Z,60.90
2022-11-01T20:29:06.997Z,61.40
2022-11-01T20:31:34.002Z,61.40
2022-11-01T20:34:00.945Z,61.90
2022-11-01T20:36:28.175Z,62.10
2022-11-01T20:38:55.182Z,62.50
2022-11-01T20:41:22.445Z,63.00
2022-11-01T20:43:49.667Z,63.80
2022-11-01T20:46:16.689Z,64.30
2022-11-01T20:48:45.140Z,64.70
2022-11-01T20:51:13.177Z,65.50
2022-11-01T20:53:40.479Z,66.10
2022-11-01T20:56:08.098Z,66.60
2022-11-01T20:58:40.931Z,66.80
2022-11-01T21:01:19.177Z,67.30
2022-11-01T21:03:46.457Z,67.30
2022-11-01T21:06:17.975Z,67.10
2022-11-01T21:08:49.406Z,67.50
2022-11-01T21:11:16.166Z,67.80
2022-11-01T21:13:46.784Z,68.00
2022-11-01T21:16:24.413Z,67.70
2022-11-01T21:18:54.360Z,67.90
2022-11-01T21:21:30.339Z,67.70
2022-11-01T21:23:58.615Z,67.50
2022-11-01T21:26:35.925Z,67.50
2022-11-01T21:29:18.973Z,67.70
2022-11-01T21:31:45.847Z,67.60
2022-11-01T21:34:12.625Z,67.60
2022-11-01T21:36:46.605Z,67.50
2022-11-01T21:39:27.739Z,67.40
2022-11-01T21:41:57.970Z,66.60
2022-11-01T21:44:28.664Z,66.50
2022-11-01T21:46:59.949Z,66.40
2022-11-01T21:49:32.962Z,66.30
2022-11-01T21:52:02.061Z,66.60
2022-11-01T21:54:31.043Z,67.00
2022-11-01T21:56:58.241Z,67.20
2022-11-01T21:59:26.072Z,67.60
2022-11-01T22:01:53.935Z,68.00
2022-11-01T22:04:24.780Z,68.20
2022-11-01T22:06:54.629Z,68.50
2022-11-01T22:09:21.429Z,68.80
2022-11-01T22:11:48.385Z,69.30
2022-11-01T22:14:15.519Z,69.70
2022-11-01T22:16:42.375Z,70.00
2022-11-01T22:19:09.551Z,70.30
2022-11-01T22:21:36.627Z,70.70
2022-11-01T22:24:03.916Z,70.80
2022-11-01T22:26:31.104Z,70.90
2022-11-01T22:28:58.405Z,71.20
2022-11-01T22:31:25.648Z,71.30
2022-11-01T22:33:56.658Z,71.40
2022-11-01T22:36:29.311Z,71.50
2022-11-01T22:39:00.131Z,71.40
2022-11-01T22:41:45.286Z,71.50
2022-11-01T22:44:14.884Z,71.60
2022-11-01T22:46:56.870Z,71.40
2022-11-01T22:49:40.514Z,71.50
2022-11-01T22:52:13.550Z,71.70
2022-11-01T22:54:47.587Z,71.60
2022-11-01T22:57:15.791Z,71.60
2022-11-01T22:59:52.112Z,71.70
2022-11-01T23:02:25.708Z,71.60
2022-11-01T23:05:01.080Z,71.60
2022-11-01T23:07:38.979Z,71.50
2022-11-01T23:10:34.115Z,71.60
2022-11-01T23:13:28.621Z,71.60
2022-11-01T23:16:00.890Z,71.50
2022-11-01T23:18:31.928Z,71.40
2022-11-01T23:21:16.966Z,71.40
2022-11-01T23:23:45.811Z,71.30
2022-11-01T23:26:13.723Z,71.20
2022-11-01T23:28:41.889Z,71.20
2022-11-01T23:31:09.184Z,71.30
2022-11-01T23:33:40.112Z,71.30
2022-11-01T23:36:22.722Z,71.20
2022-11-01T23:41:36.043Z,71.10
2022-11-01T23:44:12.509Z,71.60
2022-11-01T23:46:39.492Z,70.70
2022-11-01T23:49:25.003Z,71.40
2022-11-01T23:51:52.416Z,70.20
2022-11-01T23:54:30.885Z,70.00
2022-11-01T23:56:57.692Z,69.50
2022-11-01T23:59:24.664Z,69.30
